ADDS METAR Data INFO
IDs: Format: Raw Decoded Include TAF

Data at: 1248 UTC 19 Oct 2017

KDSV 191154Z AUTO 00000KT 10SM CLR 08/04 A3012 RMK AO2 SLP210 T00780039 10089 20061 58009
KDSV 191054Z AUTO 17003KT 10SM CLR 08/04 A3013 RMK AO2 SLP213 T00780039
KDSV 190954Z AUTO 16007KT 10SM CLR 08/04 A3014 RMK AO2 SLP217 T00830044
KDSV 190854Z AUTO 16007KT 10SM CLR 08/04 A3015 RMK AO2 SLP217 T00780044 55004
KDSV 190754Z AUTO 15007KT 10SM CLR 08/04 A3015 RMK AO2 SLP216 T00830044
KDSV 190654Z AUTO 15007KT 10SM CLR 08/04 A3016 RMK AO2 SLP221 T00780044
KDSV 190554Z AUTO 17006KT 10SM CLR 09/04 A3016 RMK AO2 SLP221 T00890044 10128 20078 56009
KDSV 190454Z AUTO 16006KT 10SM CLR 09/04 A3016 RMK AO2 SLP223 T00890044 402390078
KDSV 190354Z AUTO 14008KT 10SM CLR 11/05 A3018 RMK AO2 SLP227 T01110050
KDSV 190254Z AUTO 15006KT 10SM CLR 11/05 A3019 RMK AO2 SLP232 T01110050 56005
KDSV 190154Z AUTO 16006KT 10SM CLR 12/06 A3019 RMK AO2 SLP233 T01170056
KDSV 190054Z AUTO 18004KT 10SM CLR 12/06 A3020 RMK AO2 SLP236 T01220061
KDSV 182354Z AUTO 00000KT 10SM CLR 13/07 A3020 RMK AO2 SLP239 T01280072 10239 20128 53007
KDSV 182254Z AUTO 00000KT 10SM CLR 15/08 A3020 RMK AO2 SLP236 T01500078
KDSV 182154Z AUTO 00000KT 10SM CLR 21/06 A3018 RMK AO2 SLP228 T02060061
KDSV 182054Z AUTO 18005KT 10SM CLR 23/03 A3018 RMK AO2 SLP229 T02330033 56016
KDSV 181954Z AUTO VRB04KT 10SM CLR 23/04 A3020 RMK AO2 SLP232 T02330039
KDSV 181854Z AUTO 18008KT 10SM CLR 23/04 A3021 RMK AO2 SLP238 T02280039
KDSV 181754Z AUTO 21007KT 10SM CLR 22/04 A3023 RMK AO2 SLP245 T02220044 10222 20083 58023
KDSV 181654Z AUTO 19006KT 10SM CLR 21/06 A3027 RMK AO2 SLP257 T02110061
KDSV 181554Z AUTO 15008KT 10SM CLR 19/08 A3029 RMK AO2 SLP266 T01890083
KDSV 181454Z AUTO 14007KT 10SM CLR 17/08 A3030 RMK AO2 SLP270 T01720078 50002
KDSV 181354Z AUTO 14007KT 10SM CLR 14/07 A3031 RMK AO2 SLP273 T01390067
KDSV 181254Z AUTO 13006KT 10SM CLR 11/05 A3031 RMK AO2 SLP275 T01110050
KDSV 181154Z AUTO 16006KT 10SM CLR 08/04 A3029 RMK AO2 SLP270 T00830039 10111 20078 51016
KDSV 181054Z AUTO 15006KT 10SM CLR 08/04 A3028 RMK AO2 SLP265 T00830039
KDSV 180954Z AUTO 18006KT 10SM CLR 09/04 A3026 RMK AO2 SLP256 T00890039
KDSV 180854Z AUTO 16005KT 10SM CLR 09/04 A3024 RMK AO2 SLP251 T00890039 53009
KDSV 180754Z AUTO 16004KT 10SM CLR 09/04 A3023 RMK AO2 SLP247 T00940039
KDSV 180654Z AUTO 15004KT 10SM CLR 11/03 A3023 RMK AO2 SLP244 T01060033
KDSV 180554Z AUTO 13008KT 10SM CLR 10/04 A3022 RMK AO2 SLP241 T01000039 10117 20083 50000
KDSV 180454Z AUTO 15005KT 10SM CLR 11/03 A3022 RMK AO2 SLP242 T01060033 401830000
KDSV 180354Z AUTO 16006KT 10SM CLR 11/03 A3022 RMK AO2 SLP243 T01060033
KDSV 180254Z AUTO 13003KT 10SM CLR 10/03 A3021 RMK AO2 SLP243 T01000033 53016
KDSV 180154Z AUTO 15004KT 10SM CLR 09/03 A3020 RMK AO2 SLP238 T00940033
KDSV 180054Z AUTO 15005KT 10SM CLR 10/04 A3018 RMK AO2 SLP232 T01000039